Time;durP1;ratioP1;P1;durP2;ratioP2;P2;SDS_P1;SDS_P2;PMS_P1;PMS_P2;Temp;Humidity;BMP_temperature;BMP_pressure;BME280_temperature;BME280_humidity;BME280_pressure;Samples;Min_cycle;Max_cycle;Signal;HPM_P1;HPM_P2
2022/11/06 00:00:05;;;;;;;5.53;3.85;;;8.30;99.90;;;;;;5068997;28;20627;-52
2022/11/06 00:02:31;;;;;;;7.00;3.85;;;8.40;99.90;;;;;;5068801;28;20063;-56
2022/11/06 00:06:46;;;;;;;9.32;4.15;;;8.40;99.90;;;;;;5060662;28;20464;-52
2022/11/06 00:07:45;;;;;;;5.10;4.50;;;8.40;99.90;;;;;;5066305;28;20017;-55
2022/11/06 00:10:12;;;;;;;6.22;4.00;;;8.50;99.90;;;;;;5065488;28;20028;-55
2022/11/06 00:12:38;;;;;;;9.23;4.30;;;8.40;99.90;;;;;;5063353;28;20051;-51
2022/11/06 00:15:04;;;;;;;6.55;4.65;;;8.50;99.90;;;;;;5066729;28;20024;-51
2022/11/06 00:17:29;;;;;;;7.05;4.60;;;8.40;99.90;;;;;;5060880;28;20029;-56
2022/11/06 00:19:55;;;;;;;6.20;4.30;;;8.50;99.90;;;;;;5068648;28;20074;-54
2022/11/06 00:22:20;;;;;;;8.48;4.57;;;8.50;99.90;;;;;;5063931;28;20032;-53
2022/11/06 00:24:48;;;;;;;5.90;4.25;;;8.50;99.90;;;;;;5068659;28;20025;-52
2022/11/06 00:27:13;;;;;;;4.60;4.18;;;8.50;99.90;;;;;;5060316;28;20052;-54
2022/11/06 00:29:39;;;;;;;7.72;4.22;;;8.50;99.90;;;;;;5065311;28;20071;-52
2022/11/06 00:32:05;;;;;;;4.28;3.88;;;8.60;99.90;;;;;;5105515;22;20560;-52
2022/11/06 00:34:31;;;;;;;7.13;3.35;;;8.60;99.90;;;;;;5087999;28;20095;-54
2022/11/06 00:36:56;;;;;;;5.97;3.67;;;8.60;99.90;;;;;;5086543;28;20028;-51
2022/11/06 00:39:22;;;;;;;4.90;3.75;;;8.60;99.90;;;;;;5078221;28;20475;-50
2022/11/06 00:41:47;;;;;;;4.72;3.47;;;8.70;99.90;;;;;;5101067;28;20020;-54
2022/11/06 00:44:13;;;;;;;6.28;3.90;;;8.70;99.90;;;;;;5108469;28;20028;-53
2022/11/06 00:46:38;;;;;;;4.45;3.22;;;8.60;99.90;;;;;;5090303;28;20024;-52
2022/11/06 00:49:04;;;;;;;5.90;3.53;;;8.60;99.90;;;;;;5079682;28;20611;-51
2022/11/06 00:51:34;;;;;;;5.00;3.53;;;8.60;99.90;;;;;;5097272;28;20395;-53
2022/11/06 00:54:02;;;;;;;6.78;3.67;;;8.60;99.90;;;;;;5087681;28;20039;-51
2022/11/06 00:56:28;;;;;;;7.28;3.88;;;8.60;99.90;;;;;;5106940;28;20030;-52
2022/11/06 00:58:55;;;;;;;6.45;3.70;;;8.60;99.90;;;;;;5101012;28;20483;-51
2022/11/06 01:01:26;;;;;;;4.85;3.15;;;8.60;99.90;;;;;;5083205;28;20030;-55
2022/11/06 01:04:09;;;;;;;5.00;3.30;;;8.60;99.90;;;;;;5105464;28;20039;-49
2022/11/06 01:06:37;;;;;;;4.70;3.42;;;8.60;99.90;;;;;;5108814;28;20051;-50
2022/11/06 01:09:04;;;;;;;6.00;4.13;;;8.60;99.90;;;;;;5073576;28;20028;-54
2022/11/06 01:11:32;;;;;;;5.32;3.53;;;8.60;99.90;;;;;;5108247;28;20035;-51
2022/11/06 01:14:00;;;;;;;7.25;3.33;;;8.60;99.90;;;;;;5108185;28;20016;-53
2022/11/06 01:16:26;;;;;;;3.20;2.90;;;8.60;99.90;;;;;;5111203;28;20644;-55
2022/11/06 01:18:53;;;;;;;6.22;3.60;;;8.50;99.90;;;;;;5112214;28;20047;-54
2022/11/06 01:21:24;;;;;;;4.55;3.10;;;8.50;99.90;;;;;;5104103;28;20035;-52
2022/11/06 01:24:01;;;;;;;7.93;4.03;;;8.60;99.90;;;;;;5111234;28;20019;-54
2022/11/06 01:26:28;;;;;;;7.35;3.42;;;8.60;99.90;;;;;;5092936;28;20023;-54
2022/11/06 01:28:54;;;;;;;5.72;3.50;;;8.60;99.90;;;;;;5112070;28;20012;-52
2022/11/06 01:31:22;;;;;;;6.00;3.60;;;8.60;99.90;;;;;;5092978;28;20031;-55
2022/11/06 01:33:48;;;;;;;4.10;3.03;;;8.60;99.90;;;;;;5110338;28;20161;-54
2022/11/06 01:36:15;;;;;;;7.40;3.25;;;8.60;99.90;;;;;;5107748;28;20031;-51
2022/11/06 01:38:42;;;;;;;5.60;2.92;;;8.60;99.90;;;;;;5111982;28;20020;-53
2022/11/06 01:41:12;;;;;;;8.25;3.50;;;8.60;99.90;;;;;;5111259;28;20024;-53
2022/11/06 01:43:49;;;;;;;3.97;3.33;;;8.60;99.90;;;;;;5110750;28;20031;-53
2022/11/06 01:46:19;;;;;;;3.75;3.00;;;8.60;99.90;;;;;;5105114;28;20392;-51
2022/11/06 01:48:52;;;;;;;5.53;3.20;;;8.60;99.90;;;;;;5107304;28;20016;-55
2022/11/06 01:51:20;;;;;;;4.57;3.05;;;8.60;99.90;;;;;;5106382;28;20380;-54
2022/11/06 01:53:46;;;;;;;5.07;3.42;;;8.60;99.90;;;;;;5086343;28;20055;-56
2022/11/06 01:56:13;;;;;;;4.18;2.60;;;8.70;99.90;;;;;;5108498;28;20052;-52
2022/11/06 01:58:42;;;;;;;6.90;3.83;;;8.70;99.90;;;;;;5099710;28;20032;-55
2022/11/06 02:01:08;;;;;;;8.25;3.45;;;8.60;99.90;;;;;;5108803;28;20028;-54
2022/11/06 02:03:35;;;;;;;4.70;2.78;;;8.70;99.90;;;;;;5108760;28;20023;-55
2022/11/06 02:06:02;;;;;;;5.20;3.30;;;8.70;99.90;;;;;;5111015;28;20047;-52
2022/11/06 02:08:28;;;;;;;4.60;3.05;;;8.70;99.90;;;;;;5109443;28;20449;-53
2022/11/06 02:10:54;;;;;;;5.80;3.00;;;8.70;99.90;;;;;;5105232;28;20106;-52
2022/11/06 02:13:44;;;;;;;4.32;3.45;;;8.70;99.90;;;;;;5089170;28;20436;-53
2022/11/06 02:16:20;;;;;;;6.22;3.15;;;8.70;99.90;;;;;;5109759;28;20107;-52
2022/11/06 02:18:55;;;;;;;5.22;3.45;;;8.70;99.90;;;;;;5100644;28;20859;-52
2022/11/06 02:22:04;;;;;;;7.70;3.20;;;8.70;99.90;;;;;;5105658;28;20395;-52
2022/11/06 02:24:45;;;;;;;3.72;3.25;;;8.70;99.90;;;;;;5087867;28;20027;-53
2022/11/06 02:27:15;;;;;;;5.55;3.00;;;8.70;99.90;;;;;;5084523;28;20084;-53
2022/11/06 02:30:01;;;;;;;4.93;3.60;;;8.70;99.90;;;;;;5107980;28;20027;-53
2022/11/06 02:32:31;;;;;;;4.45;3.00;;;8.70;99.90;;;;;;5084550;28;20047;-55
2022/11/06 02:34:59;;;;;;;4.63;3.30;;;8.70;99.90;;;;;;5109529;28;20402;-54
2022/11/06 02:37:31;;;;;;;6.65;3.63;;;8.70;99.90;;;;;;5087237;28;20055;-52
2022/11/06 02:39:59;;;;;;;4.03;3.47;;;8.70;99.90;;;;;;5104695;28;20486;-54
2022/11/06 02:42:28;;;;;;;5.97;4.55;;;8.70;99.90;;;;;;5089662;28;20107;-52
2022/11/06 02:44:56;;;;;;;4.25;3.15;;;8.80;99.90;;;;;;5098275;28;20016;-54
2022/11/06 02:47:23;;;;;;;7.97;3.15;;;8.80;99.90;;;;;;5088988;28;20078;-53
2022/11/06 02:50:12;;;;;;;7.25;3.67;;;8.80;99.90;;;;;;5106552;28;20106;-55
2022/11/06 02:52:50;;;;;;;4.97;3.63;;;8.80;99.90;;;;;;5093635;28;20583;-55
2022/11/06 02:55:21;;;;;;;7.10;3.50;;;8.80;99.90;;;;;;5109436;28;20567;-53
2022/11/06 02:57:54;;;;;;;7.50;3.55;;;8.80;99.90;;;;;;5105034;28;20042;-53
2022/11/06 03:00:21;;;;;;;4.53;3.33;;;8.80;99.90;;;;;;5101462;28;20020;-50
2022/11/06 03:02:54;;;;;;;8.35;3.50;;;8.80;99.90;;;;;;5082159;28;20015;-53
2022/11/06 03:05:33;;;;;;;7.68;3.92;;;8.80;99.90;;;;;;5104298;28;20089;-53
2022/11/06 03:08:06;;;;;;;6.57;3.95;;;8.80;99.90;;;;;;5084360;28;20074;-55
2022/11/06 03:11:00;;;;;;;4.75;3.60;;;8.80;99.90;;;;;;5106989;28;20035;-53
2022/11/06 03:13:55;;;;;;;4.78;3.70;;;8.80;99.90;;;;;;5086729;28;20046;-55
2022/11/06 03:16:54;;;;;;;4.75;3.22;;;8.70;99.90;;;;;;5107161;28;20028;-52
2022/11/06 03:19:44;;;;;;;5.20;3.55;;;8.70;99.90;;;;;;5103185;28;20449;-53
2022/11/06 03:22:27;;;;;;;6.10;3.30;;;8.70;99.90;;;;;;5106091;28;20509;-52
2022/11/06 03:25:13;;;;;;;4.30;3.35;;;8.80;99.90;;;;;;5099685;28;20034;-53
2022/11/06 03:28:05;;;;;;;9.52;3.63;;;8.70;99.90;;;;;;5104477;28;20028;-53
2022/11/06 03:30:37;;;;;;;5.63;3.53;;;8.70;99.90;;;;;;5092603;28;20031;-56
2022/11/06 03:33:13;;;;;;;7.15;3.55;;;8.70;99.90;;;;;;5089198;28;20031;-52
2022/11/06 03:35:46;;;;;;;5.13;3.50;;;8.70;99.90;;;;;;5105855;28;20016;-55
2022/11/06 03:38:29;;;;;;;5.93;4.00;;;8.70;99.90;;;;;;5106602;28;20489;-53
2022/11/06 03:41:00;;;;;;;9.32;3.72;;;8.70;99.90;;;;;;5109004;28;20028;-55
2022/11/06 03:43:29;;;;;;;7.45;3.45;;;8.70;99.90;;;;;;5107872;28;20019;-54
2022/11/06 03:45:56;;;;;;;4.10;3.33;;;8.70;99.90;;;;;;5086667;28;20016;-53
2022/11/06 03:48:32;;;;;;;4.78;3.42;;;8.70;99.90;;;;;;5079569;28;20077;-54
2022/11/06 03:50:58;;;;;;;;;;;8.70;99.90;;;;;;5103210;28;20035;-54
2022/11/06 03:53:48;;;;;;;9.37;3.83;;;8.70;99.90;;;;;;5101204;28;19903;-52
2022/11/06 03:56:32;;;;;;;5.70;3.65;;;8.80;99.90;;;;;;5095640;28;20706;-53
2022/11/06 03:59:01;;;;;;;3.97;3.03;;;8.80;99.90;;;;;;5085020;28;20114;-52
2022/11/06 04:01:32;;;;;;;5.00;3.13;;;8.80;99.90;;;;;;5102520;28;20438;-54
2022/11/06 04:04:07;;;;;;;5.47;3.25;;;8.80;99.90;;;;;;5095597;28;20031;-53
2022/11/06 04:06:39;;;;;;;4.18;3.13;;;8.80;99.90;;;;;;5108864;28;20125;-55
2022/11/06 04:14:40;;;;;;;;;;;8.80;99.90;;;;;;5104824;28;20030;-53
2022/11/06 04:17:11;;;;;;;4.25;3.20;;;8.80;99.90;;;;;;5101313;28;20296;-51
2022/11/06 04:19:38;;;;;;;5.72;3.63;;;8.80;99.90;;;;;;5087651;28;20024;-52
2022/11/06 04:22:27;;;;;;;6.13;3.70;;;8.80;99.90;;;;;;5095447;28;20077;-52
2022/11/06 04:28:28;;;;;;;5.05;3.63;;;8.80;99.90;;;;;;5100175;28;20038;-53
2022/11/06 04:31:19;;;;;;;7.03;3.45;;;8.80;99.90;;;;;;5083026;28;20040;-51
2022/11/06 04:33:54;;;;;;;5.90;3.17;;;8.80;99.90;;;;;;5105140;28;20089;-51
2022/11/06 04:36:37;;;;;;;5.95;3.13;;;8.80;99.90;;;;;;5090661;28;20380;-53
2022/11/06 04:39:08;;;;;;;5.95;3.20;;;8.80;99.90;;;;;;5107352;28;20020;-53
2022/11/06 04:41:44;;;;;;;6.28;3.22;;;8.80;99.90;;;;;;5108621;28;20073;-52
2022/11/06 04:44:22;;;;;;;7.20;3.97;;;8.80;99.90;;;;;;5105321;28;20099;-54
2022/11/06 04:46:53;;;;;;;6.60;3.35;;;8.80;99.90;;;;;;5109049;28;20444;-53
2022/11/06 04:49:20;;;;;;;6.53;3.55;;;8.80;99.90;;;;;;5067353;28;20020;-51
2022/11/06 04:51:46;;;;;;;7.80;3.75;;;8.80;99.90;;;;;;5104283;28;20031;-51
2022/11/06 04:54:13;;;;;;;6.93;3.40;;;8.70;99.90;;;;;;5087232;28;20165;-55
2022/11/06 04:56:39;;;;;;;5.60;3.45;;;8.70;99.90;;;;;;5111161;28;20023;-52
2022/11/06 04:59:05;;;;;;;6.53;2.97;;;8.80;99.90;;;;;;5110655;28;20027;-52
2022/11/06 05:01:31;;;;;;;6.03;3.42;;;8.80;99.90;;;;;;5108815;28;20090;-52
2022/11/06 05:03:58;;;;;;;6.03;3.60;;;8.70;99.90;;;;;;5094092;28;20134;-51
2022/11/06 05:06:23;;;;;;;10.02;3.58;;;8.70;99.90;;;;;;5109016;28;20011;-56
2022/11/06 05:08:49;;;;;;;4.20;3.72;;;8.70;99.90;;;;;;5093784;28;20028;-54
2022/11/06 05:11:14;;;;;;;6.63;3.33;;;8.80;99.90;;;;;;5112335;28;20418;-54
2022/11/06 05:13:40;;;;;;;4.32;3.42;;;8.80;99.90;;;;;;5110015;28;20479;-52
2022/11/06 05:16:06;;;;;;;6.03;3.17;;;8.70;99.90;;;;;;5109868;28;20043;-52
2022/11/06 05:18:32;;;;;;;3.95;3.15;;;8.70;99.90;;;;;;5097571;28;20102;-51
2022/11/06 05:23:43;;;;;;;5.97;2.90;;;8.70;99.90;;;;;;5097104;28;20134;-53
2022/11/06 05:26:09;;;;;;;6.97;3.50;;;8.80;99.90;;;;;;5110459;28;20530;-53
2022/11/06 05:28:34;;;;;;;6.07;3.00;;;8.80;99.90;;;;;;5107197;28;20585;-52
2022/11/06 05:31:00;;;;;;;4.45;2.92;;;8.70;99.90;;;;;;5109344;28;20514;-52
2022/11/06 05:33:25;;;;;;;5.03;3.25;;;8.80;99.90;;;;;;5106404;28;20034;-51
2022/11/06 05:35:51;;;;;;;3.05;2.75;;;8.80;99.90;;;;;;5108042;28;20046;-54
2022/11/06 05:38:17;;;;;;;6.45;2.97;;;8.80;99.90;;;;;;5110884;28;20122;-54
2022/11/06 05:40:42;;;;;;;5.93;3.08;;;8.80;99.90;;;;;;5107217;28;20034;-52
2022/11/06 05:43:08;;;;;;;6.97;3.15;;;8.80;99.90;;;;;;5111478;28;20032;-52
2022/11/06 05:45:33;;;;;;;4.82;3.28;;;8.80;99.90;;;;;;5106611;28;20024;-51
2022/11/06 05:47:59;;;;;;;4.85;3.13;;;8.70;99.90;;;;;;5110058;28;20444;-53
2022/11/06 05:50:25;;;;;;;6.72;3.72;;;8.70;99.90;;;;;;5099027;28;20023;-51
2022/11/06 05:52:50;;;;;;;2.97;2.72;;;8.70;99.90;;;;;;5101685;28;20084;-52
2022/11/06 05:55:16;;;;;;;4.38;3.13;;;8.70;99.90;;;;;;5111412;28;20435;-52
2022/11/06 05:57:42;;;;;;;5.97;3.58;;;8.70;99.90;;;;;;5109228;28;20475;-52
2022/11/06 06:00:09;;;;;;;4.70;2.67;;;8.70;99.90;;;;;;5105096;28;20034;-52
2022/11/06 06:02:35;;;;;;;4.32;3.50;;;8.70;99.90;;;;;;5107818;28;20741;-53
2022/11/06 06:05:01;;;;;;;6.57;3.97;;;8.60;99.90;;;;;;5110419;28;20102;-51
2022/11/06 06:07:26;;;;;;;4.50;3.47;;;8.60;99.90;;;;;;5107409;28;20145;-54
2022/11/06 06:09:52;;;;;;;8.35;3.13;;;8.60;99.90;;;;;;5083360;28;20487;-50
2022/11/06 06:12:17;;;;;;;9.60;3.13;;;8.60;99.90;;;;;;5106187;28;20505;-54
2022/11/06 06:14:43;;;;;;;4.80;3.47;;;8.50;99.90;;;;;;5108863;28;20032;-55
2022/11/06 06:17:08;;;;;;;5.32;3.38;;;8.40;99.90;;;;;;5102643;28;20060;-52
2022/11/06 06:19:34;;;;;;;5.35;3.08;;;8.40;99.90;;;;;;5106087;28;20043;-53
2022/11/06 06:21:59;;;;;;;5.68;3.90;;;8.40;99.90;;;;;;5109681;28;20030;-54
2022/11/06 06:24:25;;;;;;;6.68;4.15;;;8.40;99.90;;;;;;5106741;28;20065;-52
2022/11/06 06:26:50;;;;;;;6.05;3.63;;;8.30;99.90;;;;;;5108992;28;20036;-51
2022/11/06 06:29:16;;;;;;;4.95;3.97;;;8.30;99.90;;;;;;5110819;28;20094;-51
2022/11/06 06:31:41;;;;;;;5.72;3.35;;;8.20;99.90;;;;;;5089528;28;20188;-54
2022/11/06 06:34:07;;;;;;;7.50;3.60;;;8.20;99.90;;;;;;5092760;28;20042;-54
2022/11/06 06:36:33;;;;;;;5.95;3.67;;;8.20;99.90;;;;;;5107694;28;20107;-51
2022/11/06 06:38:58;;;;;;;6.00;3.97;;;8.20;99.90;;;;;;5102521;28;20564;-51
2022/11/06 06:41:24;;;;;;;7.55;3.85;;;8.20;99.90;;;;;;5110053;28;20024;-51
2022/11/06 06:43:49;;;;;;;6.70;3.53;;;8.10;99.90;;;;;;5108643;28;20159;-53
2022/11/06 06:46:16;;;;;;;6.63;3.45;;;8.10;99.90;;;;;;5103810;28;20027;-55
2022/11/06 06:48:41;;;;;;;5.50;3.85;;;8.10;99.90;;;;;;5089950;28;20015;-54
2022/11/06 06:51:07;;;;;;;6.55;3.80;;;8.10;99.90;;;;;;5099556;28;20040;-51
2022/11/06 06:53:33;;;;;;;5.80;3.47;;;8.10;99.90;;;;;;5079123;28;20783;-52
2022/11/06 06:55:59;;;;;;;4.97;3.60;;;8.10;99.90;;;;;;5095922;28;20399;-54
2022/11/06 06:58:25;;;;;;;7.43;3.45;;;8.10;99.90;;;;;;5105032;28;20670;-54
2022/11/06 07:00:51;;;;;;;3.72;3.28;;;8.10;99.90;;;;;;5104271;28;20020;-54
2022/11/06 07:03:17;;;;;;;7.38;3.83;;;8.10;99.90;;;;;;5106989;28;20015;-54
2022/11/06 07:05:42;;;;;;;4.32;3.53;;;8.10;99.90;;;;;;5088621;28;20491;-53
2022/11/06 07:08:08;;;;;;;5.15;3.42;;;8.00;99.90;;;;;;5104590;28;20043;-52
2022/11/06 07:10:34;;;;;;;5.13;3.45;;;8.00;99.90;;;;;;5110605;28;20098;-52
2022/11/06 07:13:01;;;;;;;8.43;3.90;;;8.00;99.90;;;;;;5103932;28;20546;-56
2022/11/06 07:15:26;;;;;;;8.00;3.22;;;8.10;99.90;;;;;;5110311;28;20015;-55
2022/11/06 07:17:52;;;;;;;5.03;3.78;;;8.10;99.90;;;;;;5084576;28;20243;-53
2022/11/06 07:20:17;;;;;;;5.00;3.17;;;8.10;99.90;;;;;;5088121;28;20398;-56
2022/11/06 07:22:43;;;;;;;5.30;3.92;;;8.10;99.90;;;;;;5109692;28;20122;-56
2022/11/06 07:25:09;;;;;;;4.78;3.75;;;8.10;99.90;;;;;;5108433;28;20077;-53
2022/11/06 07:27:34;;;;;;;5.35;3.25;;;8.20;99.90;;;;;;5109688;28;20037;-56
2022/11/06 07:30:00;;;;;;;5.00;3.88;;;8.10;99.90;;;;;;5103496;28;20075;-51
2022/11/06 07:32:26;;;;;;;4.60;3.63;;;8.10;99.90;;;;;;5106507;28;20031;-53
2022/11/06 07:34:51;;;;;;;5.47;4.05;;;8.10;99.90;;;;;;5102830;28;20063;-55
2022/11/06 07:37:17;;;;;;;4.88;3.42;;;8.10;99.90;;;;;;5109267;28;20028;-51
2022/11/06 07:39:43;;;;;;;3.85;3.20;;;8.10;99.90;;;;;;5109859;28;20022;-54
2022/11/06 07:42:08;;;;;;;6.20;3.75;;;8.20;99.90;;;;;;5102690;28;20636;-55
2022/11/06 07:44:34;;;;;;;3.33;2.80;;;8.20;99.90;;;;;;5088306;28;20667;-53
2022/11/06 07:47:00;;;;;;;4.68;3.70;;;8.20;99.90;;;;;;5086056;28;20035;-53
2022/11/06 07:49:25;;;;;;;3.72;3.03;;;8.20;99.90;;;;;;5087390;28;20501;-52
2022/11/06 07:51:51;;;;;;;5.10;2.85;;;8.20;99.90;;;;;;5100238;28;20028;-53
2022/11/06 07:54:16;;;;;;;5.22;3.80;;;8.30;99.90;;;;;;5101563;28;20020;-54
2022/11/06 07:56:42;;;;;;;5.13;3.20;;;8.30;99.90;;;;;;5094842;28;20024;-55
2022/11/06 07:59:07;;;;;;;4.35;3.20;;;8.30;99.90;;;;;;5104270;28;20479;-52
2022/11/06 08:01:33;;;;;;;7.00;2.90;;;8.30;99.90;;;;;;5108513;28;20020;-56
2022/11/06 08:03:59;;;;;;;4.97;2.92;;;8.30;99.90;;;;;;5108813;28;20553;-53
2022/11/06 08:06:24;;;;;;;5.75;2.90;;;8.30;99.90;;;;;;5104985;28;20434;-54
2022/11/06 08:08:50;;;;;;;4.75;2.90;;;8.40;99.90;;;;;;5107644;28;20224;-54
2022/11/06 08:11:15;;;;;;;5.93;3.13;;;8.40;99.90;;;;;;5086990;28;20491;-54
2022/11/06 08:13:41;;;;;;;4.55;3.10;;;8.40;99.90;;;;;;5087217;28;20073;-54
2022/11/06 08:16:12;;;;;;;6.28;3.30;;;8.40;99.90;;;;;;5087390;28;20032;-51
2022/11/06 08:18:38;;;;;;;8.82;3.45;;;8.40;99.90;;;;;;5103507;28;20032;-55
2022/11/06 08:21:05;;;;;;;7.05;3.90;;;8.50;99.90;;;;;;5108181;28;20016;-51
2022/11/06 08:23:31;;;;;;;6.35;2.60;;;8.40;99.90;;;;;;5087807;28;20032;-54
2022/11/06 08:25:59;;;;;;;5.05;3.05;;;8.50;99.90;;;;;;5111983;28;20022;-55
2022/11/06 08:28:25;;;;;;;8.13;3.03;;;8.50;99.90;;;;;;5108706;28;20024;-55
2022/11/06 08:30:52;;;;;;;5.43;3.10;;;8.60;99.90;;;;;;5099963;28;20609;-52
2022/11/06 08:33:18;;;;;;;3.85;2.53;;;8.50;99.90;;;;;;5094791;28;20027;-52
2022/11/06 08:35:43;;;;;;;5.00;2.60;;;8.60;99.90;;;;;;5111145;28;20651;-56
2022/11/06 08:38:09;;;;;;;3.50;2.33;;;8.70;99.90;;;;;;5112352;28;20023;-56
2022/11/06 08:40:37;;;;;;;6.50;3.10;;;8.70;99.90;;;;;;5103550;28;20032;-55
2022/11/06 08:43:05;;;;;;;3.72;2.45;;;8.70;99.90;;;;;;5109504;28;20078;-53
2022/11/06 08:45:31;;;;;;;5.57;3.05;;;8.70;99.90;;;;;;5105623;28;20031;-54
2022/11/06 08:48:01;;;;;;;5.15;2.75;;;8.70;99.90;;;;;;5109861;28;20098;-55
2022/11/06 08:50:27;;;;;;;4.85;2.75;;;8.70;99.90;;;;;;5096179;28;20030;-54
2022/11/06 08:53:03;;;;;;;4.13;2.63;;;8.70;99.90;;;;;;5109383;28;20027;-51
2022/11/06 08:55:38;;;;;;;5.88;2.78;;;8.80;99.90;;;;;;5107918;28;20352;-54
2022/11/06 08:58:05;;;;;;;2.78;2.50;;;8.80;99.90;;;;;;5073533;28;20035;-51
2022/11/06 09:00:31;;;;;;;9.10;2.47;;;8.90;99.90;;;;;;5088711;28;20030;-55
2022/11/06 09:02:58;;;;;;;4.00;2.40;;;8.90;99.90;;;;;;5088094;28;20050;-55
2022/11/06 09:05:24;;;;;;;7.00;2.75;;;8.90;99.90;;;;;;5106430;28;20561;-57
2022/11/06 09:07:50;;;;;;;6.03;2.85;;;9.00;99.90;;;;;;5089935;28;20103;-55
2022/11/06 09:10:15;;;;;;;3.70;2.10;;;9.00;99.90;;;;;;5111869;28;20028;-54
2022/11/06 09:12:41;;;;;;;4.10;2.42;;;9.10;99.90;;;;;;5089049;28;20119;-54
2022/11/06 09:15:07;;;;;;;5.45;3.53;;;9.10;99.90;;;;;;5103252;28;20359;-50
2022/11/06 09:17:32;;;;;;;5.85;2.67;;;9.20;99.90;;;;;;5109160;28;20437;-53
2022/11/06 09:19:58;;;;;;;7.40;2.70;;;9.20;99.90;;;;;;5089948;28;20110;-55
2022/11/06 09:22:23;;;;;;;3.15;2.45;;;9.30;99.90;;;;;;5088634;28;20391;-53
2022/11/06 09:24:49;;;;;;;4.50;2.33;;;9.40;99.90;;;;;;5104675;28;20467;-51
2022/11/06 09:27:15;;;;;;;11.55;3.00;;;9.40;99.90;;;;;;5110448;28;20055;-53
2022/11/06 09:29:42;;;;;;;3.30;2.22;;;9.50;99.90;;;;;;5089118;28;20118;-56
2022/11/06 09:32:09;;;;;;;2.22;1.85;;;9.50;99.90;;;;;;5108550;28;20070;-55
2022/11/06 09:34:34;;;;;;;3.95;2.53;;;9.50;99.90;;;;;;5111838;28;20595;-54
2022/11/06 09:37:03;;;;;;;4.55;2.40;;;9.60;99.90;;;;;;5107595;28;20039;-54
2022/11/06 09:39:28;;;;;;;4.05;2.60;;;9.60;99.90;;;;;;5112524;28;20020;-54
2022/11/06 09:42:00;;;;;;;6.13;2.72;;;9.60;99.90;;;;;;5088551;28;20547;-55
2022/11/06 09:45:02;;;;;;;3.50;2.65;;;9.70;99.90;;;;;;5111626;28;20015;-56
2022/11/06 09:47:33;;;;;;;4.30;2.33;;;9.70;99.90;;;;;;5087679;28;20475;-55
2022/11/06 09:50:00;;;;;;;3.03;2.10;;;9.70;99.90;;;;;;5106807;28;20024;-53
2022/11/06 09:52:43;;;;;;;2.28;1.90;;;9.80;99.90;;;;;;5106192;28;20022;-57
2022/11/06 09:55:20;;;;;;;5.40;2.72;;;9.80;99.90;;;;;;5106960;28;20084;-56
2022/11/06 09:57:56;;;;;;;4.80;1.80;;;9.80;99.90;;;;;;5109307;28;20571;-54
2022/11/06 10:00:22;;;;;;;6.03;2.30;;;9.90;99.90;;;;;;5107826;28;20104;-50
2022/11/06 10:02:50;;;;;;;2.92;2.15;;;9.90;99.90;;;;;;5107713;28;20122;-55
2022/11/06 10:05:28;;;;;;;4.05;2.47;;;10.00;99.90;;;;;;5111483;28;20398;-51
2022/11/06 10:08:04;;;;;;;3.40;2.97;;;10.00;99.90;;;;;;5106634;28;20470;-56
2022/11/06 10:10:54;;;;;;;4.55;2.53;;;10.00;99.90;;;;;;5100217;28;20020;-50
2022/11/06 10:13:53;;;;;;;3.72;2.47;;;10.10;99.90;;;;;;5105529;28;20603;-54
2022/11/06 10:16:55;;;;;;;5.03;2.08;;;10.20;99.90;;;;;;5100209;28;20028;-55
2022/11/06 10:19:45;;;;;;;5.47;1.70;;;10.20;99.90;;;;;;5104356;28;20043;-54
2022/11/06 10:22:24;;;;;;;2.97;1.75;;;10.30;99.90;;;;;;5091839;28;20074;-52
2022/11/06 10:25:21;;;;;;;3.95;2.17;;;10.40;99.90;;;;;;5107046;28;20034;-53
2022/11/06 10:28:08;;;;;;;3.00;1.95;;;10.60;99.90;;;;;;5100024;28;20051;-52
2022/11/06 10:30:42;;;;;;;3.58;1.42;;;10.70;99.90;;;;;;5105791;28;20023;-52
2022/11/06 10:33:28;;;;;;;3.47;2.05;;;10.80;99.90;;;;;;5111269;28;20040;-52
2022/11/06 10:36:10;;;;;;;5.40;1.88;;;10.90;99.90;;;;;;5107428;28;20023;-55
2022/11/06 10:38:43;;;;;;;3.75;1.83;;;11.00;99.90;;;;;;5109966;28;20028;-57
2022/11/06 10:41:19;;;;;;;6.05;2.28;;;11.00;99.90;;;;;;5097750;28;20016;-53
2022/11/06 10:43:57;;;;;;;3.08;1.42;;;11.20;99.90;;;;;;5107603;28;20118;-52
2022/11/06 10:46:33;;;;;;;4.47;1.88;;;11.20;99.90;;;;;;5097821;28;20111;-52
2022/11/06 10:49:03;;;;;;;;;;;11.30;99.90;;;;;;5107281;28;20070;-53
2022/11/06 10:51:50;;;;;;;2.17;1.15;;;11.30;99.90;;;;;;5100911;28;20331;-55
2022/11/06 10:54:53;;;;;;;3.40;1.92;;;11.30;99.90;;;;;;5102777;28;20027;-52
2022/11/06 10:57:34;;;;;;;3.10;1.52;;;11.40;99.90;;;;;;5099487;28;20027;-55
2022/11/06 10:59:59;;;;;;;3.05;2.08;;;11.40;99.90;;;;;;5104527;28;20079;-51
2022/11/06 11:02:35;;;;;;;4.18;1.92;;;11.30;99.90;;;;;;5109650;28;20091;-52
2022/11/06 11:05:01;;;;;;;;;;;11.30;99.90;;;;;;5109912;28;20574;-54
2022/11/06 11:07:33;;;;;;;2.17;1.60;;;11.20;99.90;;;;;;5110066;28;20025;-54
2022/11/06 11:10:18;;;;;;;5.55;1.50;;;11.20;99.90;;;;;;5108383;28;20110;-53
2022/11/06 11:12:44;;;;;;;4.65;1.55;;;11.30;99.90;;;;;;5100966;28;20517;-55
2022/11/06 11:15:17;;;;;;;4.47;2.00;;;11.30;99.90;;;;;;5088603;28;20024;-55
2022/11/06 11:18:14;;;;;;;1.85;1.60;;;11.30;99.90;;;;;;5104128;28;20482;-51
2022/11/06 11:20:46;;;;;;;5.65;1.70;;;11.40;99.90;;;;;;5104785;28;20016;-51
2022/11/06 11:23:23;;;;;;;2.53;1.35;;;11.40;99.90;;;;;;5106480;28;20032;-51
2022/11/06 11:25:52;;;;;;;1.63;1.48;;;11.50;99.90;;;;;;5105244;28;20012;-53
2022/11/06 11:28:35;;;;;;;3.03;1.35;;;11.50;99.90;;;;;;5105666;28;20403;-51
2022/11/06 11:31:10;;;;;;;2.67;1.58;;;11.60;99.90;;;;;;5104538;28;20106;-54
2022/11/06 11:33:37;;;;;;;5.55;1.90;;;11.60;99.90;;;;;;5109544;28;20020;-54
2022/11/06 11:36:05;;;;;;;2.08;1.77;;;11.70;99.90;;;;;;5079854;28;20038;-55
2022/11/06 11:38:34;;;;;;;3.83;1.33;;;11.80;99.90;;;;;;5105831;28;20031;-54
2022/11/06 11:41:20;;;;;;;2.17;1.38;;;11.90;99.90;;;;;;5100140;28;20023;-51
2022/11/06 11:44:05;;;;;;;;;;;12.00;99.90;;;;;;5107404;28;20039;-53
2022/11/06 11:46:32;;;;;;;1.95;1.40;;;12.10;99.90;;;;;;5098038;28;19991;-54
2022/11/06 11:48:58;;;;;;;3.25;1.75;;;12.10;99.90;;;;;;5107425;28;20020;-53
2022/11/06 11:51:46;;;;;;;4.03;1.27;;;12.20;99.90;;;;;;5104356;28;20031;-51
2022/11/06 11:54:12;;;;;;;6.53;1.95;;;12.20;99.90;;;;;;5084602;28;20036;-54
2022/11/06 11:57:00;;;;;;;2.95;1.40;;;12.30;99.90;;;;;;5088342;28;20395;-54
2022/11/06 11:59:42;;;;;;;3.65;1.58;;;12.40;99.90;;;;;;5101702;28;20034;-56
2022/11/06 12:02:13;;;;;;;2.70;1.65;;;12.50;99.90;;;;;;5096434;28;20495;-53
2022/11/06 12:04:42;;;;;;;2.33;1.30;;;12.50;99.90;;;;;;5108496;28;20034;-55
2022/11/06 12:07:21;;;;;;;3.70;1.60;;;12.50;99.90;;;;;;5105249;28;20073;-53
2022/11/06 12:09:46;;;;;;;3.92;1.50;;;12.50;99.90;;;;;;5107849;28;20019;-55
2022/11/06 12:12:25;;;;;;;5.13;2.00;;;12.50;99.90;;;;;;5104097;28;20031;-55
2022/11/06 12:15:04;;;;;;;4.88;1.20;;;12.50;99.90;;;;;;5106786;28;20024;-55
2022/11/06 12:17:32;;;;;;;3.53;1.25;;;12.50;99.90;;;;;;5085189;28;20087;-51
2022/11/06 12:20:01;;;;;;;1.73;1.10;;;12.50;99.90;;;;;;5104531;28;20134;-52
2022/11/06 12:22:34;;;;;;;3.00;1.05;;;12.50;99.90;;;;;;5102572;28;20043;-52
2022/11/06 12:25:23;;;;;;;2.40;1.20;;;12.50;99.90;;;;;;5103876;28;20020;-54
2022/11/06 12:27:56;;;;;;;1.67;1.27;;;12.50;99.90;;;;;;5097623;28;20089;-54
2022/11/06 12:30:22;;;;;;;4.80;1.42;;;12.50;99.90;;;;;;5102777;28;20483;-53
2022/11/06 12:32:53;;;;;;;3.53;1.67;;;12.50;99.90;;;;;;5085125;22;20045;-54
2022/11/06 12:35:29;;;;;;;2.22;1.40;;;12.50;99.90;;;;;;5049770;28;20027;-53
2022/11/06 12:38:10;;;;;;;2.78;1.38;;;12.50;99.90;;;;;;5058337;28;20078;-55
2022/11/06 12:40:41;;;;;;;1.98;1.27;;;12.50;99.90;;;;;;5061023;28;20033;-55
2022/11/06 12:43:12;;;;;;;2.97;1.70;;;12.50;99.90;;;;;;5056523;28;20017;-54
2022/11/06 12:45:53;;;;;;;7.93;5.10;;;12.50;99.90;;;;;;5053967;28;20020;-56
2022/11/06 12:48:57;;;;;;;6.90;5.20;;;12.50;99.90;;;;;;5050111;28;20029;-55
2022/11/06 12:51:42;;;;;;;9.05;6.25;;;12.40;99.90;;;;;;5007101;28;20478;-54
2022/11/06 12:54:17;;;;;;;2.33;1.73;;;12.30;99.90;;;;;;5055798;28;20040;-55
2022/11/06 12:57:15;;;;;;;5.32;4.20;;;12.30;99.90;;;;;;5055982;28;20087;-52
2022/11/06 13:00:05;;;;;;;2.97;2.45;;;12.40;99.90;;;;;;5054736;28;20090;-53
2022/11/06 13:02:31;;;;;;;3.10;2.25;;;12.30;99.90;;;;;;5051230;28;20559;-53
2022/11/06 13:05:17;;;;;;;4.05;1.73;;;12.40;99.90;;;;;;5054030;28;20108;-51
2022/11/06 13:08:01;;;;;;;1.92;1.80;;;12.40;99.90;;;;;;5018006;28;20025;-57
2022/11/06 13:10:50;;;;;;;2.92;1.30;;;12.40;99.90;;;;;;5056184;28;20066;-55
2022/11/06 13:13:45;;;;;;;2.83;1.55;;;12.40;99.90;;;;;;5034641;28;20032;-53
2022/11/06 13:16:37;;;;;;;4.63;1.80;;;12.40;99.90;;;;;;5026862;28;20028;-53
2022/11/06 13:19:24;;;;;;;3.08;1.30;;;12.40;99.90;;;;;;5040044;28;20040;-55
2022/11/06 13:21:50;;;;;;;2.25;1.38;;;12.50;99.90;;;;;;5061670;28;20034;-53
2022/11/06 13:24:51;;;;;;;4.80;2.00;;;12.50;99.90;;;;;;5062033;28;20029;-54
2022/11/06 13:27:26;;;;;;;1.70;1.60;;;12.50;99.90;;;;;;5060621;28;20150;-54
2022/11/06 13:29:56;;;;;;;1.50;1.40;;;12.40;99.90;;;;;;5060062;28;20508;-55